createdAt,value
2018-12-09T00:00:08.889Z,98920.64
2018-12-09T00:02:37.836Z,98921.43
2018-12-09T00:05:06.166Z,98920.49
2018-12-09T00:07:34.545Z,98922.20
2018-12-09T00:10:02.952Z,98933.83
2018-12-09T00:12:32.072Z,98921.27
2018-12-09T00:15:00.407Z,98916.58
2018-12-09T00:17:28.725Z,98910.37
2018-12-09T00:19:57.057Z,98926.42
2018-12-09T00:22:25.435Z,98925.10
2018-12-09T00:24:53.880Z,98923.91
2018-12-09T00:27:22.296Z,98942.91
2018-12-09T00:29:50.621Z,98946.28
2018-12-09T00:32:18.955Z,98956.98
2018-12-09T00:34:47.278Z,98947.05
2018-12-09T00:37:15.660Z,98941.05
2018-12-09T00:39:44.010Z,98948.66
2018-12-09T00:42:12.421Z,98935.74
2018-12-09T00:44:41.370Z,98931.57
2018-12-09T00:47:09.688Z,98940.30
2018-12-09T00:49:38.013Z,98938.81
2018-12-09T00:52:06.445Z,98943.57
2018-12-09T00:54:34.777Z,98942.25
2018-12-09T00:57:03.156Z,98948.97
2018-12-09T00:59:31.480Z,98931.75
2018-12-09T01:02:01.858Z,98939.79
2018-12-09T01:04:30.281Z,98940.80
2018-12-09T01:06:58.660Z,98955.50
2018-12-09T01:09:27.032Z,98946.19
2018-12-09T01:11:55.836Z,98956.45
2018-12-09T01:14:24.169Z,98958.25
2018-12-09T01:16:52.491Z,98956.25
2018-12-09T01:19:20.876Z,98964.40
2018-12-09T01:21:49.280Z,98975.45
2018-12-09T01:24:21.923Z,98980.06
2018-12-09T01:26:50.258Z,98974.34
2018-12-09T01:29:18.585Z,98973.66
2018-12-09T01:31:46.970Z,98960.22
2018-12-09T01:34:15.857Z,98970.84
2018-12-09T01:36:44.247Z,98968.84
2018-12-09T01:39:12.610Z,98966.89
2018-12-09T01:41:40.996Z,98974.34
2018-12-09T01:44:09.426Z,98973.83
2018-12-09T01:46:37.881Z,98966.88
2018-12-09T01:49:06.542Z,98966.71
2018-12-09T01:51:34.926Z,98968.37
2018-12-09T01:54:09.444Z,98970.39
2018-12-09T01:56:39.314Z,98968.95
2018-12-09T01:59:07.693Z,98989.59
2018-12-09T02:01:36.073Z,98975.06
2018-12-09T02:04:04.756Z,98986.37
2018-12-09T02:06:33.663Z,98995.80
2018-12-09T02:09:02.030Z,98988.53
2018-12-09T02:11:30.319Z,98980.77
2018-12-09T02:13:58.687Z,98998.17
2018-12-09T02:16:27.258Z,98989.75
2018-12-09T02:21:54.489Z,98986.31
2018-12-09T02:24:23.441Z,98990.64
2018-12-09T02:26:51.759Z,98977.56
2018-12-09T02:29:20.182Z,98987.97
2018-12-09T02:31:49.338Z,98991.77
2018-12-09T02:34:17.758Z,98988.30
2018-12-09T02:36:46.200Z,98991.09
2018-12-09T02:39:14.578Z,99008.64
2018-12-09T02:41:42.912Z,99006.64
2018-12-09T02:44:11.238Z,99010.65
2018-12-09T02:46:39.656Z,98994.27
2018-12-09T02:49:07.994Z,99003.04
2018-12-09T02:51:36.529Z,99010.17
2018-12-09T02:54:05.024Z,99008.81
2018-12-09T02:56:33.398Z,99012.26
2018-12-09T02:59:01.768Z,99003.19
2018-12-09T03:01:30.249Z,99011.44
2018-12-09T03:03:58.576Z,99014.92
2018-12-09T03:06:26.955Z,99015.20
2018-12-09T03:08:55.493Z,99018.53
2018-12-09T03:11:23.844Z,99006.42
2018-12-09T03:13:52.239Z,99018.33
2018-12-09T03:16:20.634Z,99014.20
2018-12-09T03:18:48.965Z,99012.03
2018-12-09T03:21:17.334Z,99011.55
2018-12-09T03:23:45.769Z,99015.53
2018-12-09T03:26:14.347Z,99021.12
2018-12-09T03:28:42.723Z,99029.23
2018-12-09T03:31:11.716Z,99025.90
2018-12-09T03:33:40.111Z,99024.91
2018-12-09T03:36:08.477Z,99017.80
2018-12-09T03:38:36.959Z,99017.65
2018-12-09T03:41:05.324Z,99011.55
2018-12-09T03:43:34.183Z,99024.25
2018-12-09T03:46:02.512Z,99031.72
2018-12-09T03:48:30.887Z,99013.52
2018-12-09T03:50:59.266Z,99026.47
2018-12-09T03:53:28.212Z,99023.47
2018-12-09T03:55:56.541Z,99027.95
2018-12-09T03:58:24.886Z,99031.27
2018-12-09T04:00:53.203Z,99023.98
2018-12-09T04:03:21.542Z,99027.15
2018-12-09T04:05:51.337Z,99025.00
2018-12-09T04:08:19.825Z,99029.64
2018-12-09T04:10:48.205Z,99034.93
2018-12-09T04:13:16.439Z,99045.19
2018-12-09T04:15:44.806Z,99031.84
2018-12-09T04:18:13.103Z,99027.74
2018-12-09T04:20:41.446Z,99021.48
2018-12-09T04:23:09.731Z,99017.37
2018-12-09T04:25:38.740Z,99005.00
2018-12-09T04:28:07.009Z,99017.03
2018-12-09T04:30:35.362Z,99004.95
2018-12-09T04:33:03.722Z,98971.23
2018-12-09T04:35:32.049Z,98958.02
2018-12-09T04:38:00.313Z,98967.10
2018-12-09T04:40:29.157Z,99016.66
2018-12-09T04:42:57.488Z,99068.75
2018-12-09T04:45:25.786Z,99080.00
2018-12-09T04:47:54.090Z,99078.33
2018-12-09T04:50:22.351Z,99062.99
2018-12-09T04:52:51.001Z,99064.50
2018-12-09T04:55:19.264Z,99051.61
2018-12-09T04:57:47.558Z,99060.52
2018-12-09T05:00:27.642Z,99046.16
2018-12-09T05:02:56.117Z,99056.52
2018-12-09T05:05:24.381Z,99056.25
2018-12-09T05:07:52.764Z,99067.95
2018-12-09T05:10:21.178Z,99057.48
2018-12-09T05:12:49.545Z,99058.41
2018-12-09T05:15:17.875Z,99066.07
2018-12-09T05:17:46.167Z,99056.97
2018-12-09T05:20:14.405Z,99067.39
2018-12-09T05:22:42.683Z,99069.20
2018-12-09T05:25:10.965Z,99073.84
2018-12-09T05:27:39.261Z,99067.91
2018-12-09T05:30:07.701Z,99070.92
2018-12-09T05:32:36.032Z,99071.72
2018-12-09T05:35:04.448Z,99068.23
2018-12-09T05:37:33.347Z,99073.37
2018-12-09T05:40:01.645Z,99077.24
2018-12-09T05:42:29.946Z,99073.56
2018-12-09T05:44:58.209Z,99077.38
2018-12-09T05:47:26.581Z,99084.47
2018-12-09T05:49:55.418Z,99102.30
2018-12-09T05:52:23.713Z,99097.76
2018-12-09T05:54:52.047Z,99107.68
2018-12-09T05:57:20.402Z,99119.09
2018-12-09T05:59:48.747Z,99114.30
2018-12-09T06:02:29.234Z,99118.28
2018-12-09T06:04:57.922Z,99117.98
2018-12-09T06:07:26.252Z,99112.19
2018-12-09T06:09:54.583Z,99123.23
2018-12-09T06:12:22.877Z,99126.55
2018-12-09T06:14:51.147Z,99130.67
2018-12-09T06:17:19.846Z,99119.61
2018-12-09T06:19:48.153Z,99129.67
2018-12-09T06:22:16.469Z,99133.32
2018-12-09T06:24:44.820Z,99135.79
2018-12-09T06:27:13.100Z,99144.87
2018-12-09T06:29:41.389Z,99132.79
2018-12-09T06:32:09.646Z,99144.53
2018-12-09T06:34:37.924Z,99141.89
2018-12-09T06:37:06.208Z,99151.77
2018-12-09T06:39:34.567Z,99155.25
2018-12-09T06:42:02.930Z,99150.61
2018-12-09T06:44:31.288Z,99159.23
2018-12-09T06:46:59.553Z,99169.44
2018-12-09T06:49:27.862Z,99171.29
2018-12-09T06:51:56.196Z,99174.44
2018-12-09T06:54:24.484Z,99176.73
2018-12-09T06:56:52.828Z,99179.84
2018-12-09T06:59:21.121Z,99188.30
2018-12-09T07:01:49.457Z,99182.03
2018-12-09T07:04:17.762Z,99181.56
2018-12-09T07:06:46.458Z,99197.05
2018-12-09T07:09:14.794Z,99197.73
2018-12-09T07:11:44.090Z,99202.67
2018-12-09T07:14:12.413Z,99201.55
2018-12-09T07:16:40.735Z,99201.86
2018-12-09T07:19:09.071Z,99217.58
2018-12-09T07:21:37.355Z,99216.09
2018-12-09T07:24:05.734Z,99236.92
2018-12-09T07:26:34.097Z,99232.95
2018-12-09T07:29:02.435Z,99236.75
2018-12-09T07:31:30.763Z,99241.71
2018-12-09T07:33:59.184Z,99245.00
2018-12-09T07:36:27.616Z,99248.80
2018-12-09T07:38:55.956Z,99247.97
2018-12-09T07:41:24.484Z,99261.37
2018-12-09T07:43:52.925Z,99267.30
2018-12-09T07:46:21.247Z,99265.84
2018-12-09T07:48:49.828Z,99271.78
2018-12-09T07:51:18.225Z,99269.13
2018-12-09T07:53:46.538Z,99269.96
2018-12-09T07:56:15.178Z,99272.11
2018-12-09T07:58:43.498Z,99259.40
2018-12-09T08:01:11.830Z,99278.89
2018-12-09T08:03:40.093Z,99278.72
2018-12-09T08:06:08.374Z,99285.84
2018-12-09T08:08:36.993Z,99289.95
2018-12-09T08:11:05.261Z,99288.14
2018-12-09T08:13:33.667Z,99293.42
2018-12-09T08:16:02.227Z,99295.61
2018-12-09T08:18:30.764Z,99302.73
2018-12-09T08:20:59.062Z,99301.87
2018-12-09T08:23:27.332Z,99312.63
2018-12-09T08:25:55.626Z,99319.23
2018-12-09T08:28:23.880Z,99315.60
2018-12-09T08:30:52.252Z,99320.73
2018-12-09T08:33:20.599Z,99319.38
2018-12-09T08:35:48.906Z,99325.33
2018-12-09T08:38:17.204Z,99333.09
2018-12-09T08:40:45.455Z,99328.66
2018-12-09T08:43:13.777Z,99325.38
2018-12-09T08:45:42.042Z,99332.64
2018-12-09T08:48:10.324Z,99318.55
2018-12-09T08:50:38.625Z,99316.95
2018-12-09T08:53:06.914Z,99321.06
2018-12-09T08:55:35.217Z,99330.66
2018-12-09T08:58:03.613Z,99326.35
2018-12-09T09:00:31.915Z,99325.03
2018-12-09T09:03:00.213Z,99332.97
2018-12-09T09:05:28.470Z,99326.69
2018-12-09T09:07:56.793Z,99323.22
2018-12-09T09:10:25.089Z,99330.98
2018-12-09T09:12:53.381Z,99333.95
2018-12-09T09:15:21.668Z,99332.14
2018-12-09T09:17:49.972Z,99333.98
2018-12-09T09:20:18.252Z,99343.84
2018-12-09T09:22:46.592Z,99346.00
2018-12-09T09:25:14.884Z,99347.63
2018-12-09T09:27:43.143Z,99350.11
2018-12-09T09:30:11.493Z,99353.92
2018-12-09T09:32:39.793Z,99357.03
2018-12-09T09:35:08.178Z,99357.02
2018-12-09T09:37:36.479Z,99360.86
2018-12-09T09:40:05.980Z,99368.44
2018-12-09T09:42:34.273Z,99363.33
2018-12-09T09:45:02.611Z,99367.94
2018-12-09T09:47:30.896Z,99363.99
2018-12-09T09:49:59.189Z,99368.48
2018-12-09T09:52:27.465Z,99366.98
2018-12-09T09:54:55.769Z,99376.58
2018-12-09T09:57:24.029Z,99377.53
2018-12-09T09:59:52.296Z,99373.56
2018-12-09T10:02:20.568Z,99372.43
2018-12-09T10:04:48.916Z,99373.27
2018-12-09T10:07:17.192Z,99372.12
2018-12-09T10:09:45.539Z,99377.43
2018-12-09T10:12:13.837Z,99368.46
2018-12-09T10:14:42.233Z,99381.01
2018-12-09T10:17:10.594Z,99372.25
2018-12-09T10:19:38.881Z,99378.35
2018-12-09T10:22:07.153Z,99381.82
2018-12-09T10:24:35.429Z,99381.83
2018-12-09T10:27:03.800Z,99377.20
2018-12-09T10:29:32.071Z,99386.95
2018-12-09T10:32:00.361Z,99394.41
2018-12-09T10:34:28.828Z,99387.93
2018-12-09T10:36:57.140Z,99386.30
2018-12-09T10:39:25.416Z,99383.00
2018-12-09T10:41:53.741Z,99388.63
2018-12-09T10:44:22.036Z,99387.98
2018-12-09T10:46:50.332Z,99368.30
2018-12-09T10:49:18.583Z,99389.31
2018-12-09T10:51:46.909Z,99393.41
2018-12-09T10:54:15.183Z,99403.47
2018-12-09T10:56:43.437Z,99405.44
2018-12-09T10:59:11.746Z,99397.91
2018-12-09T11:01:40.386Z,99398.99
2018-12-09T11:04:08.744Z,99411.47
2018-12-09T11:06:37.074Z,99402.88
2018-12-09T11:09:06.423Z,99409.36
2018-12-09T11:11:34.746Z,99402.06
2018-12-09T11:14:03.057Z,99412.11
2018-12-09T11:16:31.369Z,99411.38
2018-12-09T11:18:59.655Z,99417.11
2018-12-09T11:21:30.861Z,99422.29
2018-12-09T11:23:58.157Z,99423.02
2018-12-09T11:26:26.456Z,99423.06
2018-12-09T11:28:54.717Z,99434.60
2018-12-09T11:31:23.003Z,99427.81
2018-12-09T11:33:51.257Z,99435.34
2018-12-09T11:36:19.529Z,99443.33
2018-12-09T11:38:47.832Z,99446.68
2018-12-09T11:41:16.108Z,99444.17
2018-12-09T11:43:44.409Z,99445.23
2018-12-09T11:46:12.709Z,99448.98
2018-12-09T11:48:40.979Z,99446.34
2018-12-09T11:51:09.260Z,99445.14
2018-12-09T11:53:37.526Z,99444.42
2018-12-09T11:56:05.928Z,99450.16
2018-12-09T11:58:34.137Z,99461.16
2018-12-09T12:01:02.401Z,99465.20
2018-12-09T12:03:30.705Z,99454.73
2018-12-09T12:05:59.030Z,99460.27
2018-12-09T12:08:27.313Z,99451.43
2018-12-09T12:10:55.575Z,99467.19
2018-12-09T12:13:23.970Z,99469.36
2018-12-09T12:15:52.246Z,99480.25
2018-12-09T12:18:20.566Z,99489.03
2018-12-09T12:20:48.931Z,99480.69
2018-12-09T12:23:17.285Z,99478.74
2018-12-09T12:25:45.611Z,99479.45
2018-12-09T12:28:13.937Z,99476.98
2018-12-09T12:30:42.261Z,99470.85
2018-12-09T12:33:10.644Z,99479.58
2018-12-09T12:35:39.080Z,99489.00
2018-12-09T12:38:07.464Z,99491.50
2018-12-09T12:40:35.778Z,99493.69
2018-12-09T12:43:04.145Z,99498.58
2018-12-09T12:45:32.539Z,99493.70
2018-12-09T12:48:01.292Z,99496.99
2018-12-09T12:50:29.664Z,99503.11
2018-12-09T12:52:57.947Z,99503.23
2018-12-09T12:55:26.223Z,99502.06
2018-12-09T12:57:54.520Z,99506.03
2018-12-09T13:00:22.945Z,99500.61
2018-12-09T13:02:51.195Z,99505.78
2018-12-09T13:05:19.493Z,99513.63
2018-12-09T13:07:47.801Z,99509.64
2018-12-09T13:10:16.111Z,99502.73
2018-12-09T13:12:44.509Z,99515.45
2018-12-09T13:15:13.629Z,99517.02
2018-12-09T13:17:41.993Z,99516.92
2018-12-09T13:20:10.418Z,99525.62
2018-12-09T13:22:38.786Z,99539.80
2018-12-09T13:25:07.216Z,99538.47
2018-12-09T13:27:35.565Z,99551.01
2018-12-09T13:30:04.563Z,99555.75
2018-12-09T13:32:32.926Z,99561.06
2018-12-09T13:35:01.256Z,99583.44
2018-12-09T13:37:29.587Z,99589.89
2018-12-09T13:39:57.908Z,99611.89
2018-12-09T13:42:26.259Z,99623.52
2018-12-09T13:44:54.577Z,99645.73
2018-12-09T13:47:23.049Z,99661.97
2018-12-09T13:49:52.972Z,99677.98
2018-12-09T13:52:21.338Z,99670.84
2018-12-09T13:54:49.726Z,99669.27
2018-12-09T13:57:18.106Z,99667.45
2018-12-09T13:59:46.485Z,99670.80
2018-12-09T14:02:14.801Z,99675.01
2018-12-09T14:04:43.249Z,99690.13
2018-12-09T14:07:12.068Z,99692.68
2018-12-09T14:09:40.354Z,99702.25
2018-12-09T14:12:08.644Z,99712.65
2018-12-09T14:14:36.992Z,99710.57
2018-12-09T14:17:05.361Z,99713.23
2018-12-09T14:19:33.640Z,99708.00
2018-12-09T14:22:01.929Z,99719.50
2018-12-09T14:24:30.387Z,99728.42
2018-12-09T14:26:58.640Z,99731.00
2018-12-09T14:29:27.330Z,99742.37
2018-12-09T14:31:55.970Z,99746.61
2018-12-09T14:34:24.274Z,99740.02
2018-12-09T14:36:52.544Z,99757.21
2018-12-09T14:39:20.851Z,99754.12
2018-12-09T14:41:49.135Z,99765.14
2018-12-09T14:44:17.427Z,99778.30
2018-12-09T14:46:45.701Z,99789.59
2018-12-09T14:49:13.987Z,99789.13
2018-12-09T14:51:43.244Z,99794.23
2018-12-09T14:54:11.521Z,99806.34
2018-12-09T14:56:39.833Z,99813.87
2018-12-09T14:59:08.125Z,99821.24
2018-12-09T15:01:36.770Z,99833.54
2018-12-09T15:04:05.061Z,99839.39
2018-12-09T15:06:33.390Z,99845.03
2018-12-09T15:09:01.741Z,99855.71
2018-12-09T15:11:30.512Z,99864.39
2018-12-09T15:13:58.786Z,99864.65
2018-12-09T15:16:27.119Z,99868.85
2018-12-09T15:18:55.469Z,99871.28
2018-12-09T15:21:23.879Z,99887.86
2018-12-09T15:23:52.150Z,99882.67
2018-12-09T15:26:20.453Z,99890.70
2018-12-09T15:28:48.743Z,99892.08
2018-12-09T15:31:17.095Z,99896.55
2018-12-09T15:33:45.472Z,99896.33
2018-12-09T15:36:13.837Z,99907.52
2018-12-09T15:38:42.173Z,99910.20
2018-12-09T15:41:10.505Z,99907.91
2018-12-09T15:43:38.835Z,99911.44
2018-12-09T15:46:07.096Z,99911.27
2018-12-09T15:48:35.425Z,99925.19
2018-12-09T15:51:04.169Z,99923.91
2018-12-09T15:53:32.448Z,99937.06
2018-12-09T15:56:00.717Z,99938.17
2018-12-09T15:58:29.005Z,99945.40
2018-12-09T16:00:57.281Z,99949.78
2018-12-09T16:03:25.559Z,99956.25
2018-12-09T16:05:53.854Z,99961.45
2018-12-09T16:08:22.132Z,99964.77
2018-12-09T16:10:50.771Z,99968.25
2018-12-09T16:13:19.235Z,99973.05
2018-12-09T16:15:47.599Z,99980.55
2018-12-09T16:18:15.892Z,99986.80
2018-12-09T16:20:44.270Z,99981.19
2018-12-09T16:23:12.551Z,99987.61
2018-12-09T16:25:40.842Z,99996.92
2018-12-09T16:28:09.139Z,99994.77
2018-12-09T16:30:37.424Z,100008.10
2018-12-09T16:33:05.733Z,100016.42
2018-12-09T16:35:34.041Z,100029.61
2018-12-09T16:38:02.340Z,100026.64
2018-12-09T16:40:30.632Z,100034.33
2018-12-09T16:42:58.953Z,100044.88
2018-12-09T16:45:27.247Z,100048.08
2018-12-09T16:47:55.553Z,100056.21
2018-12-09T16:50:23.857Z,100056.21
2018-12-09T16:52:52.240Z,100068.33
2018-12-09T16:55:20.549Z,100076.41
2018-12-09T16:57:48.831Z,100076.69
2018-12-09T17:00:17.285Z,100090.56
2018-12-09T17:02:45.603Z,100083.12
2018-12-09T17:05:13.867Z,100096.38
2018-12-09T17:07:42.573Z,100093.73
2018-12-09T17:10:11.108Z,100119.11
2018-12-09T17:12:39.401Z,100116.53
2018-12-09T17:15:07.856Z,100125.23
2018-12-09T17:17:36.175Z,100142.52
2018-12-09T17:20:06.602Z,100152.50
2018-12-09T17:22:35.039Z,100158.00
2018-12-09T17:25:04.253Z,100158.17
2018-12-09T17:27:32.578Z,100167.39
2018-12-09T17:30:00.894Z,100178.75
2018-12-09T17:32:29.230Z,100185.28
2018-12-09T17:34:57.539Z,100202.21
2018-12-09T17:37:25.815Z,100206.39
2018-12-09T17:39:54.149Z,100211.29
2018-12-09T17:42:22.452Z,100222.79
2018-12-09T17:44:50.744Z,100219.48
2018-12-09T17:47:19.071Z,100235.60
2018-12-09T17:49:47.374Z,100232.56
2018-12-09T17:52:15.690Z,100239.27
2018-12-09T17:54:43.966Z,100252.40
2018-12-09T17:57:12.258Z,100261.23
2018-12-09T17:59:40.592Z,100262.55
2018-12-09T18:02:09.143Z,100269.33
2018-12-09T18:04:37.464Z,100278.42
2018-12-09T18:07:06.631Z,100283.84
2018-12-09T18:09:34.931Z,100280.03
2018-12-09T18:12:03.482Z,100293.04
2018-12-09T18:14:31.788Z,100304.19
2018-12-09T18:17:00.069Z,100308.48
2018-12-09T18:19:31.428Z,100312.04
2018-12-09T18:21:59.812Z,100316.91
2018-12-09T18:24:28.097Z,100329.66
2018-12-09T18:26:56.420Z,100332.73
2018-12-09T18:29:24.696Z,100351.05
2018-12-09T18:31:53.206Z,100351.43
2018-12-09T18:34:22.359Z,100363.30
2018-12-09T18:36:51.451Z,100370.08
2018-12-09T18:39:20.440Z,100383.53
2018-12-09T18:41:49.093Z,100395.02
2018-12-09T18:44:17.380Z,100406.20
2018-12-09T18:46:45.721Z,100416.92
2018-12-09T18:49:14.009Z,100405.42
2018-12-09T18:51:42.332Z,100411.55
2018-12-09T18:54:10.648Z,100413.27
2018-12-09T18:56:38.960Z,100421.41
2018-12-09T18:59:07.241Z,100428.33
2018-12-09T19:01:35.541Z,100433.83
2018-12-09T19:04:03.860Z,100438.73
2018-12-09T19:06:32.848Z,100448.80
2018-12-09T19:09:01.180Z,100454.29
2018-12-09T19:11:29.636Z,100461.25
2018-12-09T19:13:57.896Z,100463.66
2018-12-09T19:16:26.181Z,100470.70
2018-12-09T19:18:54.485Z,100474.91
2018-12-09T19:21:22.807Z,100479.81
2018-12-09T19:23:51.569Z,100481.51
2018-12-09T19:26:19.866Z,100488.08
2018-12-09T19:28:48.173Z,100429.66
2018-12-09T19:31:16.540Z,100498.37
2018-12-09T19:33:45.177Z,100503.19
2018-12-09T19:36:13.425Z,100515.51
2018-12-09T19:38:41.768Z,100523.30
2018-12-09T19:41:10.093Z,100517.44
2018-12-09T19:43:38.445Z,100531.08
2018-12-09T19:46:06.781Z,100533.36
2018-12-09T19:48:35.156Z,100525.81
2018-12-09T19:51:03.518Z,100546.63
2018-12-09T19:53:31.851Z,100555.14
2018-12-09T19:56:00.241Z,100552.28
2018-12-09T19:58:28.547Z,100555.53
2018-12-09T20:00:56.832Z,100552.28
2018-12-09T20:03:25.116Z,100567.13
2018-12-09T20:05:53.425Z,100565.45
2018-12-09T20:08:21.726Z,100582.09
2018-12-09T20:10:50.019Z,100586.29
2018-12-09T20:13:18.357Z,100587.47
2018-12-09T20:15:46.685Z,100600.42
2018-12-09T20:18:14.968Z,100602.20
2018-12-09T20:20:43.286Z,100602.34
2018-12-09T20:23:11.582Z,100606.97
2018-12-09T20:25:39.892Z,100605.19
2018-12-09T20:28:08.365Z,100605.55
2018-12-09T20:30:36.657Z,100616.23
2018-12-09T20:33:04.927Z,100621.71
2018-12-09T20:35:33.232Z,100625.88
2018-12-09T20:38:01.600Z,100633.61
2018-12-09T20:40:29.884Z,100639.28
2018-12-09T20:42:58.213Z,100634.52
2018-12-09T20:45:26.477Z,100639.43
2018-12-09T20:47:54.769Z,100642.06
2018-12-09T20:50:23.054Z,100644.14
2018-12-09T20:52:51.361Z,100645.31
2018-12-09T20:55:19.640Z,100646.03
2018-12-09T20:57:47.909Z,100648.20
2018-12-09T21:00:16.222Z,100652.95
2018-12-09T21:02:44.505Z,100669.41
2018-12-09T21:05:12.784Z,100676.92
2018-12-09T21:07:41.060Z,100685.83
2018-12-09T21:10:09.530Z,100694.17
2018-12-09T21:12:37.830Z,100690.98
2018-12-09T21:15:06.399Z,100691.45
2018-12-09T21:17:34.813Z,100689.88
2018-12-09T21:20:03.252Z,100690.45
2018-12-09T21:22:31.560Z,100687.77
2018-12-09T21:24:59.851Z,100700.48
2018-12-09T21:27:28.152Z,100698.78
2018-12-09T21:29:56.450Z,100713.36
2018-12-09T21:32:24.774Z,100713.29
2018-12-09T21:34:53.052Z,100724.42
2018-12-09T21:37:21.353Z,100736.52
2018-12-09T21:39:49.652Z,100736.13
2018-12-09T21:42:17.933Z,100733.93
2018-12-09T21:44:46.210Z,100742.61
2018-12-09T21:47:14.506Z,100742.41
2018-12-09T21:49:42.853Z,100754.36
2018-12-09T21:52:11.155Z,100767.00
2018-12-09T21:54:39.447Z,100780.05
2018-12-09T21:57:07.741Z,100775.67
2018-12-09T21:59:36.017Z,100780.14
2018-12-09T22:02:04.587Z,100780.38
2018-12-09T22:04:32.895Z,100783.25
2018-12-09T22:07:01.220Z,100788.23
2018-12-09T22:09:29.521Z,100798.79
2018-12-09T22:11:57.904Z,100790.66
2018-12-09T22:14:26.368Z,100787.86
2018-12-09T22:16:54.658Z,100796.17
2018-12-09T22:19:22.944Z,100792.86
2018-12-09T22:21:51.254Z,100801.65
2018-12-09T22:24:19.542Z,100806.92
2018-12-09T22:26:47.856Z,100812.23
2018-12-09T22:29:16.144Z,100815.86
2018-12-09T22:31:44.456Z,100824.02
2018-12-09T22:34:12.741Z,100824.19
2018-12-09T22:36:41.050Z,100835.61
2018-12-09T22:39:09.323Z,100847.88
2018-12-09T22:41:37.645Z,100844.87
2018-12-09T22:44:05.924Z,100853.47
2018-12-09T22:46:34.229Z,100853.63
2018-12-09T22:49:02.588Z,100864.88
2018-12-09T22:51:30.905Z,100858.62
2018-12-09T22:53:59.188Z,100863.70
2018-12-09T22:56:27.476Z,100867.84
2018-12-09T22:58:55.761Z,100875.25
2018-12-09T23:01:24.029Z,100882.03
2018-12-09T23:03:52.334Z,100886.70
2018-12-09T23:06:20.635Z,100896.58
2018-12-09T23:08:48.929Z,100898.75
2018-12-09T23:11:17.213Z,100895.70
2018-12-09T23:13:45.505Z,100889.05
2018-12-09T23:16:13.783Z,100886.48
2018-12-09T23:18:42.124Z,100887.20
2018-12-09T23:21:10.399Z,100890.56
2018-12-09T23:23:38.701Z,100891.55
2018-12-09T23:26:06.968Z,100901.16
2018-12-09T23:28:35.268Z,100922.09
2018-12-09T23:31:03.688Z,100942.67
2018-12-09T23:33:31.988Z,100914.91
2018-12-09T23:36:00.258Z,100942.30
2018-12-09T23:38:28.753Z,100934.72
2018-12-09T23:40:57.028Z,100937.90
2018-12-09T23:43:25.324Z,100933.00
2018-12-09T23:45:53.619Z,100940.77
2018-12-09T23:48:21.909Z,100941.98
2018-12-09T23:50:50.231Z,100944.89
2018-12-09T23:53:18.496Z,100948.29
2018-12-09T23:55:46.788Z,100947.06
2018-12-09T23:58:15.060Z,100952.86
